UACP

Details ICAO UACP (PPK)
Name Petropavlovsk
Region Kazakhstan and Kyrgyzstan
Timezone Asia/Almaty (UTC+6.0)
Plans Departing 7
Arriving 18
Stats Elevation 452 ft / 138 m (AMSL)
Location 54.776778° 69.185900°
Runways 3
Magnetic Variation 12.679° E
Sunrise 2017-12-14 03:41:01 UTC / 2017-12-14 09:41:01 Local
Sunset 2017-12-14 10:57:28 UTC / 2017-12-14 16:57:28 Local
Advertisement - Login to hide

Runways

ID Width Length Bearing (true) Bearing (mag) Surface Threshold Offset Overrun Length
05 138 ft / 42 m 8,197 ft / 2,499 m 65.54° 52.86° Asphalt 0 ft / 0 m 0 ft / 0 m
05L 164 ft / 50 m 6,707 ft / 2,044 m 65.55° 52.87° Grass 0 ft / 0 m 0 ft / 0 m
14 492 ft / 150 m 1,970 ft / 601 m 335.03° 322.35° Grass 0 ft / 0 m 0 ft / 0 m
23 138 ft / 42 m 8,197 ft / 2,499 m 245.57° 232.89° Asphalt 0 ft / 0 m 0 ft / 0 m
23R 164 ft / 50 m 6,707 ft / 2,044 m 245.57° 232.89° Grass 0 ft / 0 m 0 ft / 0 m
32 492 ft / 150 m 1,970 ft / 601 m 155.03° 142.35° Grass 0 ft / 0 m 0 ft / 0 m

Map

Weather


0- 5 10 15 20 25 30 35+ Temperature / ° C

Clouds and Precipitation
Forecast for 2017-12-14 18:00 UTC. Updated 2 hours ago

Ground ~20,000 ft ~40,000 ft Winds

METAR

UACP 141800Z 15002MPS CAVOK M21/M23 Q1044 R23/4/0255 NOSIG RMK QFE770/1027

TAF

Not found

Frequencies

Tower 123.70 MHz UACP Tower
Warning: Do not use this data for real-world aviation or navigation. No guarantee of current accuracy is given.